sensor_id;sensor_type;location;lat;lon;timestamp;P1;durP1;ratioP1;P2;durP2;ratioP2
28545;SDS011;15749;49.606;8.738;2023-03-21T00:02:13;2.63;;;2.43;;
28545;SDS011;15749;49.606;8.738;2023-03-21T00:04:43;2.90;;;2.70;;
28545;SDS011;15749;49.606;8.738;2023-03-21T00:07:19;2.30;;;2.10;;
28545;SDS011;15749;49.606;8.738;2023-03-21T00:09:48;3.03;;;2.80;;
28545;SDS011;15749;49.606;8.738;2023-03-21T00:12:19;3.27;;;2.97;;
28545;SDS011;15749;49.606;8.738;2023-03-21T00:14:50;5.47;;;2.83;;
28545;SDS011;15749;49.606;8.738;2023-03-21T00:17:20;3.03;;;2.70;;
28545;SDS011;15749;49.606;8.738;2023-03-21T00:19:52;4.00;;;2.90;;
28545;SDS011;15749;49.606;8.738;2023-03-21T00:22:23;3.03;;;2.73;;
28545;SDS011;15749;49.606;8.738;2023-03-21T00:24:53;2.93;;;2.73;;
28545;SDS011;15749;49.606;8.738;2023-03-21T00:27:22;5.60;;;2.63;;
28545;SDS011;15749;49.606;8.738;2023-03-21T00:30:13;2.50;;;2.30;;
28545;SDS011;15749;49.606;8.738;2023-03-21T00:32:44;2.43;;;2.23;;
28545;SDS011;15749;49.606;8.738;2023-03-21T00:35:22;2.23;;;2.07;;
28545;SDS011;15749;49.606;8.738;2023-03-21T00:38:11;3.77;;;2.23;;
28545;SDS011;15749;49.606;8.738;2023-03-21T00:40:41;3.10;;;2.80;;
28545;SDS011;15749;49.606;8.738;2023-03-21T00:43:15;2.60;;;2.40;;
28545;SDS011;15749;49.606;8.738;2023-03-21T00:45:46;2.60;;;2.40;;
28545;SDS011;15749;49.606;8.738;2023-03-21T00:48:17;2.13;;;1.93;;
28545;SDS011;15749;49.606;8.738;2023-03-21T00:50:46;2.00;;;1.90;;
28545;SDS011;15749;49.606;8.738;2023-03-21T00:53:20;2.50;;;2.30;;
28545;SDS011;15749;49.606;8.738;2023-03-21T00:55:49;2.90;;;2.43;;
28545;SDS011;15749;49.606;8.738;2023-03-21T00:58:18;3.17;;;2.73;;
28545;SDS011;15749;49.606;8.738;2023-03-21T01:00:49;3.67;;;3.30;;
28545;SDS011;15749;49.606;8.738;2023-03-21T01:03:19;2.80;;;2.60;;
28545;SDS011;15749;49.606;8.738;2023-03-21T01:05:51;2.67;;;2.47;;
28545;SDS011;15749;49.606;8.738;2023-03-21T01:08:32;2.90;;;2.70;;
28545;SDS011;15749;49.606;8.738;2023-03-21T01:11:18;2.90;;;2.70;;
28545;SDS011;15749;49.606;8.738;2023-03-21T01:13:49;4.50;;;3.20;;
28545;SDS011;15749;49.606;8.738;2023-03-21T01:16:29;3.50;;;3.20;;
28545;SDS011;15749;49.606;8.738;2023-03-21T01:18:58;5.27;;;3.73;;
28545;SDS011;15749;49.606;8.738;2023-03-21T01:21:34;3.30;;;3.00;;
28545;SDS011;15749;49.606;8.738;2023-03-21T01:24:04;3.57;;;3.23;;
28545;SDS011;15749;49.606;8.738;2023-03-21T01:26:35;6.87;;;3.50;;
28545;SDS011;15749;49.606;8.738;2023-03-21T01:29:07;3.17;;;2.97;;
28545;SDS011;15749;49.606;8.738;2023-03-21T01:31:37;2.63;;;2.43;;
28545;SDS011;15749;49.606;8.738;2023-03-21T01:34:07;2.63;;;2.43;;
28545;SDS011;15749;49.606;8.738;2023-03-21T01:36:36;3.10;;;2.80;;
28545;SDS011;15749;49.606;8.738;2023-03-21T01:39:27;3.77;;;3.47;;
28545;SDS011;15749;49.606;8.738;2023-03-21T01:41:59;3.90;;;3.03;;
28545;SDS011;15749;49.606;8.738;2023-03-21T01:44:28;3.20;;;2.93;;
28545;SDS011;15749;49.606;8.738;2023-03-21T01:46:59;2.93;;;2.63;;
28545;SDS011;15749;49.606;8.738;2023-03-21T01:49:39;3.20;;;2.90;;
28545;SDS011;15749;49.606;8.738;2023-03-21T01:52:18;3.30;;;2.90;;
28545;SDS011;15749;49.606;8.738;2023-03-21T01:55:10;3.30;;;3.00;;
28545;SDS011;15749;49.606;8.738;2023-03-21T01:57:51;2.80;;;2.60;;
28545;SDS011;15749;49.606;8.738;2023-03-21T02:00:53;3.40;;;2.53;;
28545;SDS011;15749;49.606;8.738;2023-03-21T02:03:32;2.83;;;2.63;;
28545;SDS011;15749;49.606;8.738;2023-03-21T02:06:27;3.00;;;2.67;;
28545;SDS011;15749;49.606;8.738;2023-03-21T02:09:15;3.33;;;2.87;;
28545;SDS011;15749;49.606;8.738;2023-03-21T02:11:49;3.57;;;3.20;;
28545;SDS011;15749;49.606;8.738;2023-03-21T02:14:19;3.57;;;3.13;;
28545;SDS011;15749;49.606;8.738;2023-03-21T02:17:23;3.03;;;2.73;;
28545;SDS011;15749;49.606;8.738;2023-03-21T02:20:12;3.07;;;2.60;;
28545;SDS011;15749;49.606;8.738;2023-03-21T02:23:26;3.23;;;2.50;;
28545;SDS011;15749;49.606;8.738;2023-03-21T02:26:42;2.63;;;2.43;;
28545;SDS011;15749;49.606;8.738;2023-03-21T02:32:58;1.80;;;1.70;;
28545;SDS011;15749;49.606;8.738;2023-03-21T02:35:52;2.30;;;2.10;;
28545;SDS011;15749;49.606;8.738;2023-03-21T02:38:44;2.40;;;2.20;;
28545;SDS011;15749;49.606;8.738;2023-03-21T02:41:24;2.60;;;2.23;;
28545;SDS011;15749;49.606;8.738;2023-03-21T02:44:09;2.50;;;2.30;;
28545;SDS011;15749;49.606;8.738;2023-03-21T02:46:49;4.57;;;2.20;;
28545;SDS011;15749;49.606;8.738;2023-03-21T02:49:34;2.40;;;2.17;;
28545;SDS011;15749;49.606;8.738;2023-03-21T02:52:13;4.83;;;2.30;;
28545;SDS011;15749;49.606;8.738;2023-03-21T02:55:06;2.20;;;2.00;;
28545;SDS011;15749;49.606;8.738;2023-03-21T02:57:51;2.57;;;2.00;;
28545;SDS011;15749;49.606;8.738;2023-03-21T03:00:39;2.30;;;2.10;;
28545;SDS011;15749;49.606;8.738;2023-03-21T03:03:15;3.53;;;2.57;;
28545;SDS011;15749;49.606;8.738;2023-03-21T03:06:01;1.90;;;1.80;;
28545;SDS011;15749;49.606;8.738;2023-03-21T03:08:41;2.30;;;2.10;;
28545;SDS011;15749;49.606;8.738;2023-03-21T03:11:31;2.20;;;2.00;;
28545;SDS011;15749;49.606;8.738;2023-03-21T03:14:09;2.47;;;2.27;;
28545;SDS011;15749;49.606;8.738;2023-03-21T03:17:21;4.50;;;2.40;;
28545;SDS011;15749;49.606;8.738;2023-03-21T03:20:07;2.50;;;2.30;;
28545;SDS011;15749;49.606;8.738;2023-03-21T03:22:51;3.00;;;2.37;;
28545;SDS011;15749;49.606;8.738;2023-03-21T03:25:27;2.57;;;2.37;;
28545;SDS011;15749;49.606;8.738;2023-03-21T03:28:14;2.43;;;2.23;;
28545;SDS011;15749;49.606;8.738;2023-03-21T03:30:51;3.17;;;2.87;;
28545;SDS011;15749;49.606;8.738;2023-03-21T03:33:49;3.27;;;2.70;;
28545;SDS011;15749;49.606;8.738;2023-03-21T03:36:24;3.20;;;2.90;;
28545;SDS011;15749;49.606;8.738;2023-03-21T03:39:07;2.43;;;2.23;;
28545;SDS011;15749;49.606;8.738;2023-03-21T03:41:44;2.40;;;2.20;;
28545;SDS011;15749;49.606;8.738;2023-03-21T03:44:41;2.53;;;2.33;;
28545;SDS011;15749;49.606;8.738;2023-03-21T03:47:11;2.43;;;2.07;;
28545;SDS011;15749;49.606;8.738;2023-03-21T03:50:00;2.43;;;2.10;;
28545;SDS011;15749;49.606;8.738;2023-03-21T03:52:36;2.17;;;1.97;;
28545;SDS011;15749;49.606;8.738;2023-03-21T03:55:25;2.03;;;1.87;;
28545;SDS011;15749;49.606;8.738;2023-03-21T03:58:08;3.53;;;1.90;;
28545;SDS011;15749;49.606;8.738;2023-03-21T04:00:52;2.27;;;1.63;;
28545;SDS011;15749;49.606;8.738;2023-03-21T04:03:23;1.70;;;1.60;;
28545;SDS011;15749;49.606;8.738;2023-03-21T04:05:53;1.77;;;1.47;;
28545;SDS011;15749;49.606;8.738;2023-03-21T04:08:23;5.20;;;1.73;;
28545;SDS011;15749;49.606;8.738;2023-03-21T04:10:55;1.50;;;1.40;;
28545;SDS011;15749;49.606;8.738;2023-03-21T04:13:25;2.13;;;1.77;;
28545;SDS011;15749;49.606;8.738;2023-03-21T04:16:06;2.30;;;2.10;;
28545;SDS011;15749;49.606;8.738;2023-03-21T04:18:38;2.73;;;2.23;;
28545;SDS011;15749;49.606;8.738;2023-03-21T04:21:09;1.97;;;1.87;;
28545;SDS011;15749;49.606;8.738;2023-03-21T04:23:40;3.40;;;1.80;;
28545;SDS011;15749;49.606;8.738;2023-03-21T04:26:10;2.40;;;2.20;;
28545;SDS011;15749;49.606;8.738;2023-03-21T04:28:48;2.77;;;2.37;;
28545;SDS011;15749;49.606;8.738;2023-03-21T04:31:54;2.10;;;1.90;;
28545;SDS011;15749;49.606;8.738;2023-03-21T04:34:25;1.73;;;1.63;;
28545;SDS011;15749;49.606;8.738;2023-03-21T04:36:57;2.20;;;2.00;;
28545;SDS011;15749;49.606;8.738;2023-03-21T04:39:27;1.90;;;1.77;;
28545;SDS011;15749;49.606;8.738;2023-03-21T04:41:56;2.43;;;2.20;;
28545;SDS011;15749;49.606;8.738;2023-03-21T04:44:27;2.63;;;2.17;;
28545;SDS011;15749;49.606;8.738;2023-03-21T04:46:58;2.00;;;1.80;;
28545;SDS011;15749;49.606;8.738;2023-03-21T04:49:27;2.97;;;2.27;;
28545;SDS011;15749;49.606;8.738;2023-03-21T04:51:57;2.10;;;1.90;;
28545;SDS011;15749;49.606;8.738;2023-03-21T04:54:26;2.30;;;2.10;;
28545;SDS011;15749;49.606;8.738;2023-03-21T04:56:56;5.70;;;2.30;;
28545;SDS011;15749;49.606;8.738;2023-03-21T04:59:27;2.30;;;2.10;;
28545;SDS011;15749;49.606;8.738;2023-03-21T05:01:57;2.17;;;1.97;;
28545;SDS011;15749;49.606;8.738;2023-03-21T05:04:30;3.33;;;1.80;;
28545;SDS011;15749;49.606;8.738;2023-03-21T05:07:00;1.53;;;1.43;;
28545;SDS011;15749;49.606;8.738;2023-03-21T05:09:29;1.40;;;1.30;;
28545;SDS011;15749;49.606;8.738;2023-03-21T05:11:59;1.97;;;1.67;;
28545;SDS011;15749;49.606;8.738;2023-03-21T05:14:30;1.77;;;1.60;;
28545;SDS011;15749;49.606;8.738;2023-03-21T05:17:01;1.67;;;1.47;;
28545;SDS011;15749;49.606;8.738;2023-03-21T05:19:32;2.20;;;1.73;;
28545;SDS011;15749;49.606;8.738;2023-03-21T05:22:05;2.23;;;1.63;;
28545;SDS011;15749;49.606;8.738;2023-03-21T05:24:38;2.10;;;1.90;;
28545;SDS011;15749;49.606;8.738;2023-03-21T05:27:13;2.20;;;2.00;;
28545;SDS011;15749;49.606;8.738;2023-03-21T05:30:12;2.17;;;1.97;;
28545;SDS011;15749;49.606;8.738;2023-03-21T05:32:47;2.30;;;1.90;;
28545;SDS011;15749;49.606;8.738;2023-03-21T05:35:18;2.10;;;1.90;;
28545;SDS011;15749;49.606;8.738;2023-03-21T05:37:48;2.33;;;2.13;;
28545;SDS011;15749;49.606;8.738;2023-03-21T05:40:18;1.63;;;1.53;;
28545;SDS011;15749;49.606;8.738;2023-03-21T05:42:48;1.80;;;1.60;;
28545;SDS011;15749;49.606;8.738;2023-03-21T05:45:21;2.33;;;1.70;;
28545;SDS011;15749;49.606;8.738;2023-03-21T05:47:54;1.60;;;1.50;;
28545;SDS011;15749;49.606;8.738;2023-03-21T05:50:27;1.60;;;1.50;;
28545;SDS011;15749;49.606;8.738;2023-03-21T05:53:18;1.40;;;1.30;;
28545;SDS011;15749;49.606;8.738;2023-03-21T05:55:49;2.47;;;1.40;;
28545;SDS011;15749;49.606;8.738;2023-03-21T05:58:38;1.40;;;1.30;;
28545;SDS011;15749;49.606;8.738;2023-03-21T06:01:07;1.67;;;1.50;;
28545;SDS011;15749;49.606;8.738;2023-03-21T06:03:43;1.47;;;1.37;;
28545;SDS011;15749;49.606;8.738;2023-03-21T06:06:20;1.63;;;1.20;;
28545;SDS011;15749;49.606;8.738;2023-03-21T06:08:59;2.10;;;1.87;;
28545;SDS011;15749;49.606;8.738;2023-03-21T06:11:31;2.10;;;1.90;;
28545;SDS011;15749;49.606;8.738;2023-03-21T06:14:31;2.00;;;1.80;;
28545;SDS011;15749;49.606;8.738;2023-03-21T06:17:13;2.30;;;2.10;;
28545;SDS011;15749;49.606;8.738;2023-03-21T06:19:49;2.37;;;2.17;;
28545;SDS011;15749;49.606;8.738;2023-03-21T06:22:38;3.07;;;2.03;;
28545;SDS011;15749;49.606;8.738;2023-03-21T06:25:08;2.47;;;1.90;;
28545;SDS011;15749;49.606;8.738;2023-03-21T06:27:39;1.73;;;1.57;;
28545;SDS011;15749;49.606;8.738;2023-03-21T06:30:10;1.77;;;1.50;;
28545;SDS011;15749;49.606;8.738;2023-03-21T06:32:52;1.50;;;1.40;;
28545;SDS011;15749;49.606;8.738;2023-03-21T06:35:24;2.43;;;1.87;;
28545;SDS011;15749;49.606;8.738;2023-03-21T06:37:53;1.57;;;1.47;;
28545;SDS011;15749;49.606;8.738;2023-03-21T06:40:26;1.50;;;1.40;;
28545;SDS011;15749;49.606;8.738;2023-03-21T06:42:57;1.87;;;1.70;;
28545;SDS011;15749;49.606;8.738;2023-03-21T06:45:26;2.20;;;2.00;;
28545;SDS011;15749;49.606;8.738;2023-03-21T06:47:56;2.30;;;1.80;;
28545;SDS011;15749;49.606;8.738;2023-03-21T06:50:56;2.03;;;1.70;;
28545;SDS011;15749;49.606;8.738;2023-03-21T06:53:28;2.23;;;2.03;;
28545;SDS011;15749;49.606;8.738;2023-03-21T06:56:19;2.63;;;2.10;;
28545;SDS011;15749;49.606;8.738;2023-03-21T06:58:49;2.43;;;2.23;;
28545;SDS011;15749;49.606;8.738;2023-03-21T07:01:36;2.73;;;2.40;;
28545;SDS011;15749;49.606;8.738;2023-03-21T07:04:07;3.00;;;2.70;;
28545;SDS011;15749;49.606;8.738;2023-03-21T07:07:37;2.60;;;2.23;;
28545;SDS011;15749;49.606;8.738;2023-03-21T07:10:08;4.40;;;1.97;;
28545;SDS011;15749;49.606;8.738;2023-03-21T07:12:52;2.50;;;2.27;;
28545;SDS011;15749;49.606;8.738;2023-03-21T07:15:29;3.47;;;2.67;;
28545;SDS011;15749;49.606;8.738;2023-03-21T07:17:59;3.17;;;2.87;;
28545;SDS011;15749;49.606;8.738;2023-03-21T07:20:32;2.67;;;2.47;;
28545;SDS011;15749;49.606;8.738;2023-03-21T07:23:06;3.77;;;2.73;;
28545;SDS011;15749;49.606;8.738;2023-03-21T07:25:36;3.30;;;2.70;;
28545;SDS011;15749;49.606;8.738;2023-03-21T07:28:06;3.53;;;2.83;;
28545;SDS011;15749;49.606;8.738;2023-03-21T07:30:36;2.87;;;2.40;;
28545;SDS011;15749;49.606;8.738;2023-03-21T07:33:06;2.57;;;2.20;;
28545;SDS011;15749;49.606;8.738;2023-03-21T07:35:36;2.33;;;2.10;;
28545;SDS011;15749;49.606;8.738;2023-03-21T07:38:08;3.77;;;2.30;;
28545;SDS011;15749;49.606;8.738;2023-03-21T07:40:38;2.40;;;2.20;;
28545;SDS011;15749;49.606;8.738;2023-03-21T07:43:08;1.80;;;1.70;;
28545;SDS011;15749;49.606;8.738;2023-03-21T07:45:41;2.10;;;1.90;;
28545;SDS011;15749;49.606;8.738;2023-03-21T07:48:13;3.87;;;1.90;;
28545;SDS011;15749;49.606;8.738;2023-03-21T07:51:15;2.77;;;2.30;;
28545;SDS011;15749;49.606;8.738;2023-03-21T07:55:09;2.27;;;2.00;;
28545;SDS011;15749;49.606;8.738;2023-03-21T07:57:54;2.10;;;1.90;;
28545;SDS011;15749;49.606;8.738;2023-03-21T08:01:07;2.20;;;1.90;;
28545;SDS011;15749;49.606;8.738;2023-03-21T08:04:15;1.90;;;1.70;;
28545;SDS011;15749;49.606;8.738;2023-03-21T08:07:15;2.00;;;1.87;;
28545;SDS011;15749;49.606;8.738;2023-03-21T08:10:21;1.83;;;1.73;;
28545;SDS011;15749;49.606;8.738;2023-03-21T08:17:23;1.90;;;1.70;;
28545;SDS011;15749;49.606;8.738;2023-03-21T08:21:51;1.87;;;1.70;;
28545;SDS011;15749;49.606;8.738;2023-03-21T08:24:46;1.93;;;1.73;;
28545;SDS011;15749;49.606;8.738;2023-03-21T08:38:52;2.40;;;1.80;;
28545;SDS011;15749;49.606;8.738;2023-03-21T08:42:22;2.47;;;1.60;;
28545;SDS011;15749;49.606;8.738;2023-03-21T08:44:51;2.03;;;1.67;;
28545;SDS011;15749;49.606;8.738;2023-03-21T08:47:20;2.57;;;1.63;;
28545;SDS011;15749;49.606;8.738;2023-03-21T08:49:49;1.73;;;1.60;;
28545;SDS011;15749;49.606;8.738;2023-03-21T08:52:20;2.87;;;1.80;;
28545;SDS011;15749;49.606;8.738;2023-03-21T08:54:50;2.10;;;1.60;;
28545;SDS011;15749;49.606;8.738;2023-03-21T08:57:20;3.03;;;1.97;;
28545;SDS011;15749;49.606;8.738;2023-03-21T08:59:49;2.70;;;2.07;;
28545;SDS011;15749;49.606;8.738;2023-03-21T09:02:18;2.90;;;2.30;;
28545;SDS011;15749;49.606;8.738;2023-03-21T09:04:48;3.70;;;2.40;;
28545;SDS011;15749;49.606;8.738;2023-03-21T09:07:19;3.83;;;2.17;;
28545;SDS011;15749;49.606;8.738;2023-03-21T09:09:53;2.20;;;1.77;;
28545;SDS011;15749;49.606;8.738;2023-03-21T09:12:43;4.23;;;2.30;;
28545;SDS011;15749;49.606;8.738;2023-03-21T09:15:12;1.70;;;1.60;;
28545;SDS011;15749;49.606;8.738;2023-03-21T09:17:41;1.90;;;1.60;;
28545;SDS011;15749;49.606;8.738;2023-03-21T09:20:16;3.10;;;1.80;;
28545;SDS011;15749;49.606;8.738;2023-03-21T09:22:47;1.80;;;1.70;;
28545;SDS011;15749;49.606;8.738;2023-03-21T09:25:19;2.17;;;1.80;;
28545;SDS011;15749;49.606;8.738;2023-03-21T09:27:50;5.13;;;1.90;;
28545;SDS011;15749;49.606;8.738;2023-03-21T09:30:20;2.67;;;2.10;;
28545;SDS011;15749;49.606;8.738;2023-03-21T09:32:54;3.23;;;2.50;;
28545;SDS011;15749;49.606;8.738;2023-03-21T09:35:23;2.77;;;2.23;;
28545;SDS011;15749;49.606;8.738;2023-03-21T09:37:53;3.83;;;2.50;;
28545;SDS011;15749;49.606;8.738;2023-03-21T09:40:35;3.03;;;2.20;;
28545;SDS011;15749;49.606;8.738;2023-03-21T09:43:22;5.17;;;2.07;;
28545;SDS011;15749;49.606;8.738;2023-03-21T09:46:05;3.10;;;2.17;;
28545;SDS011;15749;49.606;8.738;2023-03-21T09:48:43;2.67;;;1.70;;
28545;SDS011;15749;49.606;8.738;2023-03-21T09:51:25;1.40;;;1.30;;
28545;SDS011;15749;49.606;8.738;2023-03-21T09:54:00;2.73;;;1.93;;
28545;SDS011;15749;49.606;8.738;2023-03-21T09:56:36;3.10;;;2.40;;
28545;SDS011;15749;49.606;8.738;2023-03-21T09:59:09;4.83;;;2.60;;
28545;SDS011;15749;49.606;8.738;2023-03-21T10:01:49;3.93;;;2.93;;
28545;SDS011;15749;49.606;8.738;2023-03-21T10:04:18;3.43;;;2.70;;
28545;SDS011;15749;49.606;8.738;2023-03-21T10:06:51;4.20;;;3.00;;
28545;SDS011;15749;49.606;8.738;2023-03-21T10:09:25;3.47;;;2.67;;
28545;SDS011;15749;49.606;8.738;2023-03-21T10:11:58;5.27;;;2.73;;
28545;SDS011;15749;49.606;8.738;2023-03-21T10:14:34;2.73;;;2.37;;
28545;SDS011;15749;49.606;8.738;2023-03-21T10:17:10;4.20;;;2.97;;
28545;SDS011;15749;49.606;8.738;2023-03-21T10:19:54;3.17;;;2.50;;
28545;SDS011;15749;49.606;8.738;2023-03-21T10:22:41;4.67;;;3.03;;
28545;SDS011;15749;49.606;8.738;2023-03-21T10:25:12;5.80;;;2.50;;
28545;SDS011;15749;49.606;8.738;2023-03-21T10:27:47;2.80;;;2.60;;
28545;SDS011;15749;49.606;8.738;2023-03-21T10:30:22;3.53;;;2.97;;
28545;SDS011;15749;49.606;8.738;2023-03-21T10:33:01;4.53;;;2.80;;
28545;SDS011;15749;49.606;8.738;2023-03-21T10:35:35;3.20;;;2.23;;
28545;SDS011;15749;49.606;8.738;2023-03-21T10:38:09;3.10;;;2.77;;
28545;SDS011;15749;49.606;8.738;2023-03-21T10:40:44;2.77;;;2.57;;
28545;SDS011;15749;49.606;8.738;2023-03-21T10:43:16;2.83;;;2.60;;
28545;SDS011;15749;49.606;8.738;2023-03-21T10:46:04;2.60;;;2.40;;
28545;SDS011;15749;49.606;8.738;2023-03-21T10:48:40;3.00;;;2.17;;
28545;SDS011;15749;49.606;8.738;2023-03-21T10:51:14;2.60;;;2.40;;
28545;SDS011;15749;49.606;8.738;2023-03-21T10:53:49;3.43;;;3.10;;
28545;SDS011;15749;49.606;8.738;2023-03-21T10:56:22;2.73;;;2.30;;
28545;SDS011;15749;49.606;8.738;2023-03-21T10:58:57;2.83;;;2.60;;
28545;SDS011;15749;49.606;8.738;2023-03-21T11:01:28;2.27;;;2.13;;
28545;SDS011;15749;49.606;8.738;2023-03-21T11:04:07;3.20;;;2.90;;
28545;SDS011;15749;49.606;8.738;2023-03-21T11:06:43;2.70;;;2.50;;
28545;SDS011;15749;49.606;8.738;2023-03-21T11:09:19;4.53;;;2.57;;
28545;SDS011;15749;49.606;8.738;2023-03-21T11:11:52;2.10;;;2.00;;
28545;SDS011;15749;49.606;8.738;2023-03-21T11:14:25;3.23;;;2.40;;
28545;SDS011;15749;49.606;8.738;2023-03-21T11:17:00;2.77;;;2.57;;
28545;SDS011;15749;49.606;8.738;2023-03-21T11:19:40;2.90;;;2.60;;
28545;SDS011;15749;49.606;8.738;2023-03-21T11:22:16;2.00;;;1.90;;
28545;SDS011;15749;49.606;8.738;2023-03-21T11:24:49;2.00;;;1.90;;
28545;SDS011;15749;49.606;8.738;2023-03-21T11:27:20;2.07;;;1.80;;
28545;SDS011;15749;49.606;8.738;2023-03-21T11:29:52;2.03;;;1.80;;
28545;SDS011;15749;49.606;8.738;2023-03-21T11:32:23;3.07;;;1.77;;
28545;SDS011;15749;49.606;8.738;2023-03-21T11:34:58;2.00;;;1.80;;
28545;SDS011;15749;49.606;8.738;2023-03-21T11:37:30;2.17;;;1.93;;
28545;SDS011;15749;49.606;8.738;2023-03-21T11:40:07;1.90;;;1.80;;
28545;SDS011;15749;49.606;8.738;2023-03-21T11:42:48;1.77;;;1.43;;
28545;SDS011;15749;49.606;8.738;2023-03-21T11:45:21;2.50;;;2.03;;
28545;SDS011;15749;49.606;8.738;2023-03-21T11:47:52;1.80;;;1.70;;
28545;SDS011;15749;49.606;8.738;2023-03-21T11:50:25;2.00;;;1.73;;
28545;SDS011;15749;49.606;8.738;2023-03-21T11:53:04;1.40;;;1.30;;
28545;SDS011;15749;49.606;8.738;2023-03-21T11:55:52;1.70;;;1.37;;
28545;SDS011;15749;49.606;8.738;2023-03-21T11:58:36;1.53;;;1.43;;
28545;SDS011;15749;49.606;8.738;2023-03-21T12:01:23;1.63;;;1.53;;
28545;SDS011;15749;49.606;8.738;2023-03-21T12:03:58;3.77;;;1.83;;
28545;SDS011;15749;49.606;8.738;2023-03-21T12:06:49;1.60;;;1.50;;
28545;SDS011;15749;49.606;8.738;2023-03-21T12:09:27;1.90;;;1.37;;
28545;SDS011;15749;49.606;8.738;2023-03-21T12:12:08;2.13;;;1.80;;
28545;SDS011;15749;49.606;8.738;2023-03-21T12:15:08;2.00;;;1.50;;
28545;SDS011;15749;49.606;8.738;2023-03-21T12:17:48;1.30;;;1.20;;
28545;SDS011;15749;49.606;8.738;2023-03-21T12:20:27;1.70;;;1.13;;
28545;SDS011;15749;49.606;8.738;2023-03-21T12:26:07;2.03;;;1.63;;
28545;SDS011;15749;49.606;8.738;2023-03-21T12:28:48;2.13;;;1.53;;
28545;SDS011;15749;49.606;8.738;2023-03-21T12:31:40;2.40;;;1.67;;
28545;SDS011;15749;49.606;8.738;2023-03-21T12:34:31;2.00;;;1.80;;
28545;SDS011;15749;49.606;8.738;2023-03-21T12:37:26;4.57;;;1.67;;
28545;SDS011;15749;49.606;8.738;2023-03-21T12:40:08;1.63;;;1.40;;
28545;SDS011;15749;49.606;8.738;2023-03-21T12:42:49;1.70;;;1.60;;
28545;SDS011;15749;49.606;8.738;2023-03-21T12:45:49;2.10;;;2.00;;
28545;SDS011;15749;49.606;8.738;2023-03-21T12:48:24;3.17;;;2.57;;
28545;SDS011;15749;49.606;8.738;2023-03-21T12:51:06;3.77;;;2.97;;
28545;SDS011;15749;49.606;8.738;2023-03-21T12:53:46;2.07;;;1.90;;
28545;SDS011;15749;49.606;8.738;2023-03-21T12:56:21;2.53;;;2.10;;
28545;SDS011;15749;49.606;8.738;2023-03-21T12:58:57;1.63;;;1.53;;
28545;SDS011;15749;49.606;8.738;2023-03-21T13:01:32;2.50;;;1.40;;
28545;SDS011;15749;49.606;8.738;2023-03-21T13:04:07;1.83;;;1.43;;
28545;SDS011;15749;49.606;8.738;2023-03-21T13:06:56;1.70;;;1.33;;
28545;SDS011;15749;49.606;8.738;2023-03-21T13:09:32;1.73;;;1.30;;
28545;SDS011;15749;49.606;8.738;2023-03-21T13:12:12;1.20;;;1.10;;
28545;SDS011;15749;49.606;8.738;2023-03-21T13:15:22;1.47;;;0.90;;
28545;SDS011;15749;49.606;8.738;2023-03-21T13:18:35;1.40;;;1.30;;
28545;SDS011;15749;49.606;8.738;2023-03-21T13:21:15;2.00;;;1.30;;
28545;SDS011;15749;49.606;8.738;2023-03-21T13:24:02;1.27;;;1.10;;
28545;SDS011;15749;49.606;8.738;2023-03-21T13:26:44;1.20;;;1.10;;
28545;SDS011;15749;49.606;8.738;2023-03-21T13:29:21;4.57;;;1.20;;
28545;SDS011;15749;49.606;8.738;2023-03-21T13:31:53;1.60;;;1.50;;
28545;SDS011;15749;49.606;8.738;2023-03-21T13:34:28;1.77;;;1.20;;
28545;SDS011;15749;49.606;8.738;2023-03-21T13:36:58;1.20;;;1.10;;
28545;SDS011;15749;49.606;8.738;2023-03-21T13:39:31;1.40;;;1.30;;
28545;SDS011;15749;49.606;8.738;2023-03-21T13:42:01;1.03;;;1.00;;
28545;SDS011;15749;49.606;8.738;2023-03-21T13:44:38;3.83;;;1.50;;
28545;SDS011;15749;49.606;8.738;2023-03-21T13:47:22;1.30;;;1.20;;
28545;SDS011;15749;49.606;8.738;2023-03-21T13:50:25;1.67;;;1.57;;
28545;SDS011;15749;49.606;8.738;2023-03-21T13:53:20;1.63;;;1.40;;
28545;SDS011;15749;49.606;8.738;2023-03-21T13:55:58;1.50;;;1.40;;
28545;SDS011;15749;49.606;8.738;2023-03-21T13:58:50;1.67;;;1.57;;
28545;SDS011;15749;49.606;8.738;2023-03-21T14:01:33;1.43;;;1.33;;
28545;SDS011;15749;49.606;8.738;2023-03-21T14:04:11;2.27;;;1.60;;
28545;SDS011;15749;49.606;8.738;2023-03-21T14:06:45;2.20;;;2.00;;
28545;SDS011;15749;49.606;8.738;2023-03-21T14:09:19;2.90;;;2.07;;
28545;SDS011;15749;49.606;8.738;2023-03-21T14:11:56;2.07;;;1.93;;
28545;SDS011;15749;49.606;8.738;2023-03-21T14:14:35;2.33;;;1.90;;
28545;SDS011;15749;49.606;8.738;2023-03-21T14:17:11;2.03;;;1.83;;
28545;SDS011;15749;49.606;8.738;2023-03-21T14:19:40;2.20;;;2.00;;
28545;SDS011;15749;49.606;8.738;2023-03-21T14:22:09;1.70;;;1.60;;
28545;SDS011;15749;49.606;8.738;2023-03-21T14:24:45;2.90;;;2.10;;
28545;SDS011;15749;49.606;8.738;2023-03-21T14:27:18;1.90;;;1.80;;
28545;SDS011;15749;49.606;8.738;2023-03-21T14:29:47;1.90;;;1.70;;
28545;SDS011;15749;49.606;8.738;2023-03-21T14:32:21;2.57;;;1.93;;
28545;SDS011;15749;49.606;8.738;2023-03-21T14:34:53;1.80;;;1.70;;
28545;SDS011;15749;49.606;8.738;2023-03-21T14:37:25;1.37;;;1.27;;
28545;SDS011;15749;49.606;8.738;2023-03-21T14:39:56;2.20;;;1.57;;
28545;SDS011;15749;49.606;8.738;2023-03-21T14:42:31;1.73;;;1.50;;
28545;SDS011;15749;49.606;8.738;2023-03-21T14:45:10;1.70;;;1.60;;
28545;SDS011;15749;49.606;8.738;2023-03-21T14:47:53;1.93;;;1.73;;
28545;SDS011;15749;49.606;8.738;2023-03-21T14:50:27;2.03;;;1.83;;
28545;SDS011;15749;49.606;8.738;2023-03-21T14:53:05;1.73;;;1.40;;
28545;SDS011;15749;49.606;8.738;2023-03-21T14:55:42;1.63;;;1.53;;
28545;SDS011;15749;49.606;8.738;2023-03-21T14:58:15;1.80;;;1.70;;
28545;SDS011;15749;49.606;8.738;2023-03-21T15:00:46;1.70;;;1.40;;
28545;SDS011;15749;49.606;8.738;2023-03-21T15:03:17;2.50;;;1.70;;
28545;SDS011;15749;49.606;8.738;2023-03-21T15:05:50;1.57;;;1.47;;
28545;SDS011;15749;49.606;8.738;2023-03-21T15:08:20;1.73;;;1.40;;
28545;SDS011;15749;49.606;8.738;2023-03-21T15:10:55;1.50;;;1.40;;
28545;SDS011;15749;49.606;8.738;2023-03-21T15:13:38;1.30;;;1.20;;
28545;SDS011;15749;49.606;8.738;2023-03-21T15:16:12;2.83;;;1.40;;
28545;SDS011;15749;49.606;8.738;2023-03-21T15:18:43;2.60;;;2.10;;
28545;SDS011;15749;49.606;8.738;2023-03-21T15:21:16;2.43;;;2.10;;
28545;SDS011;15749;49.606;8.738;2023-03-21T15:23:51;1.70;;;1.60;;
28545;SDS011;15749;49.606;8.738;2023-03-21T15:26:24;5.60;;;2.10;;
28545;SDS011;15749;49.606;8.738;2023-03-21T15:28:57;2.47;;;1.80;;
28545;SDS011;15749;49.606;8.738;2023-03-21T15:31:29;1.77;;;1.67;;
28545;SDS011;15749;49.606;8.738;2023-03-21T15:34:03;2.63;;;2.07;;
28545;SDS011;15749;49.606;8.738;2023-03-21T15:36:34;2.10;;;1.90;;
28545;SDS011;15749;49.606;8.738;2023-03-21T15:39:11;2.10;;;1.90;;
28545;SDS011;15749;49.606;8.738;2023-03-21T15:42:03;1.97;;;1.83;;
28545;SDS011;15749;49.606;8.738;2023-03-21T15:44:51;2.00;;;1.90;;
28545;SDS011;15749;49.606;8.738;2023-03-21T15:47:39;2.20;;;2.07;;
28545;SDS011;15749;49.606;8.738;2023-03-21T15:50:21;2.30;;;2.10;;
28545;SDS011;15749;49.606;8.738;2023-03-21T15:52:57;2.10;;;1.90;;
28545;SDS011;15749;49.606;8.738;2023-03-21T15:55:29;2.47;;;2.27;;
28545;SDS011;15749;49.606;8.738;2023-03-21T15:58:15;2.47;;;2.00;;
28545;SDS011;15749;49.606;8.738;2023-03-21T16:00:49;2.30;;;2.07;;
28545;SDS011;15749;49.606;8.738;2023-03-21T16:03:22;2.53;;;2.33;;
28545;SDS011;15749;49.606;8.738;2023-03-21T16:06:01;3.27;;;2.73;;
28545;SDS011;15749;49.606;8.738;2023-03-21T16:08:44;2.93;;;2.70;;
28545;SDS011;15749;49.606;8.738;2023-03-21T16:11:23;2.13;;;2.00;;
28545;SDS011;15749;49.606;8.738;2023-03-21T16:13:56;2.27;;;2.17;;
28545;SDS011;15749;49.606;8.738;2023-03-21T16:16:30;2.40;;;2.20;;
28545;SDS011;15749;49.606;8.738;2023-03-21T16:19:00;3.00;;;2.70;;